Dati Storici

Data ora Umidita' aria (%) Temperatura aria (°C) Rad globale (W/m²) Gonioanemometro (°) Tacoanemometro (m/s) Pioggia (mm)
30-10-2012 10:10 61.4 % 5.949 366.737 11.677 3.104 0
30-10-2012 10:00 63.5 % 5.864 346.924 39.014 0.971 0
30-10-2012 09:50 64.7 % 5.329 284 68 1.733 0
30-10-2012 09:40 65.6 % 4.92 235.831 40.35 1.272 0
30-10-2012 09:30 66.7 % 4.673 271.612 18.962 2.122 0
30-10-2012 09:20 68.2 % 4.35 256.436 19.625 2.777 0
30-10-2012 09:10 70.2 % 3.899 211.38 18.451 3.062 0
30-10-2012 09:00 72.5 % 3.602 139.344 46.545 1.575 0
30-10-2012 08:50 74 % 3.233 132.772 5.574 1.889 0
30-10-2012 08:40 75.2 % 3.048 104.614 24.861 1.102 0
30-10-2012 08:30 75.7 % 2.828 98.649 347.95 2.094 0
30-10-2012 08:20 76.9 % 2.635 79.588 0.97 2.024 0
30-10-2012 08:10 78.6 % 2.506 52.917 38.438 1.95 0
30-10-2012 08:00 79.4 % 2.329 18.544 4.776 2.309 0
30-10-2012 07:50 79.5 % 2.288 8.435 16.226 1.764 0
30-10-2012 07:40 79.7 % 2.272 6.029 20.422 2.258 0
30-10-2012 07:30 80.1 % 2.269 2.799 9.255 2.194 0
30-10-2012 07:20 80.2 % 2.255 2.171 0.832 1.456 0
30-10-2012 07:10 80.7 % 2.271 2.094 18.998 1.544 0
30-10-2012 07:00 81.3 % 2.279 1.966 2.227 0.974 0

I dati sono presentati in modo automatico a scopo informativo. In seguito a verifica i dati possono subire modifiche o essere invalidati e non riportati negli archivi definitivi.